Time;durP1;ratioP1;P1;durP2;ratioP2;P2;SDS_P1;SDS_P2;PMS_P1;PMS_P2;Temp;Humidity;BMP_temperature;BMP_pressure;BME280_temperature;BME280_humidity;BME280_pressure;Samples;Min_cycle;Max_cycle;Signal;HPM_P1;HPM_P2
2022/03/08 00:01:20;;;;;;;49.83;21.62;;;;;;;-0.38;79.38;102215.39;1762646;79;21062;-88
2022/03/08 00:03:47;;;;;;;50.03;21.80;;;;;;;-0.28;79.26;102211.61;1772278;79;21601;-88
2022/03/08 00:06:13;;;;;;;39.10;21.07;;;;;;;-0.20;79.14;102210.63;1758216;80;21756;-88
2022/03/08 00:08:40;;;;;;;45.05;21.62;;;;;;;-0.13;79.04;102205.63;1763934;80;21078;-88
2022/03/08 00:11:07;;;;;;;41.40;21.45;;;;;;;-0.07;78.91;102208.77;1777086;80;22691;-88
2022/03/08 00:13:34;;;;;;;47.25;22.48;;;;;;;-0.02;78.81;102201.05;1749268;79;21058;-88
2022/03/08 00:16:00;;;;;;;48.98;20.50;;;;;;;0.01;78.70;102205.58;1748435;79;21015;-89
2022/03/08 00:18:27;;;;;;;42.38;21.20;;;;;;;0.02;78.49;102206.48;1780387;79;21050;-89
2022/03/08 00:20:54;;;;;;;36.95;20.48;;;;;;;0.01;78.42;102203.39;1758034;80;21058;-89
2022/03/08 00:23:20;;;;;;;40.38;18.35;;;;;;;0.01;78.37;102209.86;1745109;81;21709;-89
2022/03/08 00:25:47;;;;;;;36.83;18.42;;;;;;;-0.02;78.25;102203.64;1739970;81;21646;-92
2022/03/08 00:28:14;;;;;;;33.98;16.97;;;;;;;-0.06;78.16;102207.08;1712451;83;21181;-89
2022/03/08 00:30:40;;;;;;;30.75;16.17;;;;;;;-0.14;78.05;102202.51;1772810;79;21074;-90
2022/03/08 00:33:07;;;;;;;27.75;15.03;;;;;;;-0.24;77.94;102198.17;1766972;80;20992;-88
2022/03/08 00:35:33;;;;;;;27.27;14.98;;;;;;;-0.35;77.90;102197.97;1754298;79;21762;-91
2022/03/08 00:38:00;;;;;;;26.45;14.20;;;;;;;-0.46;77.97;102203.05;1754498;80;21060;-91
2022/03/08 00:40:27;;;;;;;25.48;13.75;;;;;;;-0.54;78.08;102204.02;1750924;82;21558;-91
2022/03/08 00:42:53;;;;;;;25.92;12.70;;;;;;;-0.63;78.17;102201.88;1751038;82;21057;-91
2022/03/08 00:45:20;;;;;;;26.33;12.33;;;;;;;-0.69;78.32;102198.33;1750740;80;21013;-87
2022/03/08 00:47:47;;;;;;;20.82;11.68;;;;;;;-0.74;78.46;102194.79;1741159;80;21779;-89
2022/03/08 00:50:17;;;;;;;21.40;11.45;;;;;;;-0.81;78.60;102198.46;1744204;80;21008;-90
2022/03/08 00:52:45;;;;;;;23.12;12.33;;;;;;;-0.84;78.71;102195.22;1760355;80;21051;-91
2022/03/08 00:55:13;;;;;;;24.30;11.88;;;;;;;-0.87;78.75;102199.19;1773301;80;21213;-88
2022/03/08 00:57:40;;;;;;;22.70;11.85;;;;;;;-0.92;78.82;102204.30;1705086;82;21153;-88
2022/03/08 01:00:08;;;;;;;26.73;12.68;;;;;;;-0.96;78.94;102211.24;1728841;82;21826;-90
2022/03/08 01:02:35;;;;;;;19.00;11.65;;;;;;;-1.00;79.08;102204.48;1724147;82;21022;-90
2022/03/08 01:05:02;;;;;;;21.50;11.78;;;;;;;-1.02;79.17;102200.84;1710730;83;21011;-89
2022/03/08 01:07:28;;;;;;;23.18;11.97;;;;;;;-1.05;79.30;102191.53;1736742;82;21065;-88
2022/03/08 01:09:56;;;;;;;27.65;12.20;;;;;;;-1.07;79.36;102195.64;1738809;82;21547;-90
2022/03/08 01:12:24;;;;;;;24.90;12.80;;;;;;;-1.10;79.41;102203.09;1734569;82;21776;-91
2022/03/08 01:14:51;;;;;;;22.52;12.28;;;;;;;-1.13;79.48;102204.08;1739979;82;21065;-85
2022/03/08 01:17:18;;;;;;;21.90;13.30;;;;;;;-1.13;79.63;102214.42;1733416;81;21076;-85
2022/03/08 01:19:45;;;;;;;22.87;12.00;;;;;;;-1.14;79.77;102215.20;1728507;81;21170;-85
2022/03/08 01:22:11;;;;;;;19.45;12.07;;;;;;;-1.15;79.87;102217.63;1723471;81;21063;-90
2022/03/08 01:24:41;;;;;;;20.02;11.83;;;;;;;-1.17;79.93;102205.85;1728861;82;21766;-90
2022/03/08 01:27:08;;;;;;;24.57;11.93;;;;;;;-1.18;80.00;102195.91;1735044;81;21054;-90
2022/03/08 01:29:37;;;;;;;19.80;11.95;;;;;;;-1.20;80.03;102197.44;1725530;81;21078;-90
2022/03/08 01:32:05;;;;;;;20.05;10.70;;;;;;;-1.21;80.10;102208.91;1698311;83;21196;-87
2022/03/08 01:34:31;;;;;;;19.05;10.93;;;;;;;-1.23;80.13;102201.02;1736762;82;21496;-91
2022/03/08 01:36:58;;;;;;;18.40;10.25;;;;;;;-1.23;80.17;102196.23;1706581;83;21936;-86
2022/03/08 01:39:24;;;;;;;19.30;10.70;;;;;;;-1.26;80.20;102194.28;1719848;83;21019;-85
2022/03/08 01:41:51;;;;;;;19.32;10.18;;;;;;;-1.25;80.27;102193.89;1729395;81;21063;-87
2022/03/08 01:44:18;;;;;;;18.05;8.90;;;;;;;-1.25;80.29;102192.59;1734374;82;21144;-88
2022/03/08 01:46:45;;;;;;;18.55;9.63;;;;;;;-1.26;80.40;102198.52;1722840;81;21093;-88
2022/03/08 01:49:12;;;;;;;13.93;8.40;;;;;;;-1.24;80.59;102195.34;1719013;81;21762;-90
2022/03/08 01:51:39;;;;;;;13.20;8.50;;;;;;;-1.24;80.58;102189.23;1738772;81;21641;-90
2022/03/08 01:54:09;;;;;;;16.42;8.70;;;;;;;-1.24;80.62;102187.59;1734492;81;21995;-90
2022/03/08 01:56:36;;;;;;;16.65;8.25;;;;;;;-1.23;80.75;102186.80;1736885;81;21248;-92
2022/03/08 01:59:03;;;;;;;14.55;8.68;;;;;;;-1.23;80.72;102184.61;1739430;82;21033;-88
2022/03/08 02:01:30;;;;;;;13.22;7.72;;;;;;;-1.24;80.79;102176.31;1730443;82;21804;-88
2022/03/08 02:03:57;;;;;;;13.88;8.20;;;;;;;-1.21;80.83;102180.49;1723405;81;21109;-90
2022/03/08 02:06:24;;;;;;;11.93;7.28;;;;;;;-1.23;80.84;102177.76;1723879;82;21094;-88
2022/03/08 02:08:51;;;;;;;15.13;7.62;;;;;;;-1.23;80.93;102171.69;1694314;82;50676;-85
2022/03/08 02:11:18;;;;;;;14.07;7.53;;;;;;;-1.22;80.99;102173.49;1741466;81;21136;-91
2022/03/08 02:13:45;;;;;;;12.25;7.30;;;;;;;-1.22;81.00;102167.03;1788702;78;21823;-93
2022/03/08 02:16:11;;;;;;;10.53;6.67;;;;;;;-1.22;81.09;102167.97;1788343;80;21062;-88
2022/03/08 02:18:38;;;;;;;12.88;7.03;;;;;;;-1.22;81.08;102167.97;1771365;80;21609;-87
2022/03/08 02:21:05;;;;;;;11.80;6.95;;;;;;;-1.21;81.15;102172.74;1782300;80;21059;-90
2022/03/08 02:23:32;;;;;;;12.00;6.37;;;;;;;-1.20;81.24;102168.12;1777600;79;21047;-91
2022/03/08 02:26:00;;;;;;;10.88;6.60;;;;;;;-1.18;81.28;102167.88;1782313;80;21799;-90
2022/03/08 02:28:28;;;;;;;9.30;6.28;;;;;;;-1.18;81.28;102168.78;1780773;80;21097;-90
2022/03/08 02:31:10;;;;;;;11.50;7.17;;;;;;;-1.18;81.29;102164.00;1741541;81;21046;-95
2022/03/08 02:33:38;;;;;;;10.70;6.83;;;;;;;-1.17;81.35;102169.28;1769242;80;21024;-88
2022/03/08 02:36:06;;;;;;;12.33;6.85;;;;;;;-1.15;81.47;102164.27;1758658;80;21087;-86
2022/03/08 02:38:33;;;;;;;13.32;6.30;;;;;;;-1.15;81.43;102168.15;1762439;80;22710;-88
2022/03/08 02:40:59;;;;;;;11.15;7.12;;;;;;;-1.15;81.45;102168.54;1765774;79;21096;-91
2022/03/08 02:43:26;;;;;;;10.80;6.72;;;;;;;-1.15;81.45;102175.00;1772196;80;20999;-88
2022/03/08 02:45:52;;;;;;;11.20;6.75;;;;;;;-1.15;81.45;102175.90;1750799;80;21072;-87
2022/03/08 02:48:19;;;;;;;14.38;7.10;;;;;;;-1.16;81.46;102170.22;1767109;80;21031;-89
2022/03/08 02:50:46;;;;;;;10.70;7.17;;;;;;;-1.17;81.45;102181.31;1722111;82;21734;-88
2022/03/08 02:53:12;;;;;;;12.03;7.05;;;;;;;-1.17;81.53;102178.72;1713546;83;21058;-88
2022/03/08 02:55:39;;;;;;;11.43;6.78;;;;;;;-1.16;81.54;102187.02;1712191;83;21106;-90
2022/03/08 02:58:06;;;;;;;12.60;6.60;;;;;;;-1.18;81.51;102175.23;1700344;83;21004;-88
2022/03/08 03:00:33;;;;;;;10.98;6.78;;;;;;;-1.18;81.52;102184.67;1705071;83;21059;-88
2022/03/08 03:03:00;;;;;;;9.85;6.17;;;;;;;-1.19;81.47;102182.45;1685165;83;21747;-91
2022/03/08 03:05:27;;;;;;;10.80;6.50;;;;;;;-1.21;81.41;102182.69;1694390;84;21114;-91
2022/03/08 03:07:53;;;;;;;8.40;6.05;;;;;;;-1.21;81.44;102181.78;1691241;83;21106;-89
2022/03/08 03:10:21;;;;;;;10.45;6.40;;;;;;;-1.23;81.44;102179.05;1718193;83;21125;-89
2022/03/08 03:12:47;;;;;;;10.45;6.00;;;;;;;-1.23;81.49;102177.76;1691850;83;21098;-90
2022/03/08 03:15:15;;;;;;;9.88;5.75;;;;;;;-1.23;81.49;102180.34;1688845;83;21823;-90
2022/03/08 03:17:41;;;;;;;8.18;5.33;;;;;;;-1.23;81.48;102175.56;1688071;83;21340;-91
2022/03/08 03:20:10;;;;;;;8.48;5.40;;;;;;;-1.23;81.56;102179.05;1692073;83;21090;-89
2022/03/08 03:22:37;;;;;;;10.23;6.25;;;;;;;-1.21;81.66;102179.20;1698705;83;21050;-87
2022/03/08 03:25:04;;;;;;;11.15;6.25;;;;;;;-1.20;81.65;102177.16;1700573;83;21762;-88
2022/03/08 03:27:31;;;;;;;8.00;5.53;;;;;;;-1.20;81.60;102179.35;1691642;83;21747;-86
2022/03/08 03:29:58;;;;;;;9.63;5.58;;;;;;;-1.20;81.57;102172.89;1696043;83;21143;-89
2022/03/08 03:32:24;;;;;;;8.55;5.83;;;;;;;-1.21;81.58;102175.33;1693067;83;21091;-90
2022/03/08 03:34:51;;;;;;;8.63;5.80;;;;;;;-1.21;81.55;102180.49;1692762;84;21060;-89
2022/03/08 03:37:20;;;;;;;8.78;5.78;;;;;;;-1.32;81.54;102160.48;1703459;83;21096;-86
2022/03/08 03:39:46;;;;;;;11.70;6.55;;;;;;;-1.22;81.56;102186.41;1698424;83;22684;-88
2022/03/08 03:42:13;;;;;;;12.10;6.45;;;;;;;-1.23;81.65;102185.51;1692766;83;21059;-92
2022/03/08 03:44:39;;;;;;;9.50;6.15;;;;;;;-1.23;81.69;102189.77;1693221;83;21548;-91
2022/03/08 03:47:06;;;;;;;12.93;6.45;;;;;;;-1.24;81.66;102193.11;1697492;83;21031;-90
2022/03/08 03:49:32;;;;;;;10.35;6.40;;;;;;;-1.24;81.62;102196.98;1692486;84;21162;-85
2022/03/08 03:51:59;;;;;;;11.75;6.37;;;;;;;-1.24;81.67;102190.16;1692416;84;21753;-90
2022/03/08 03:54:26;;;;;;;12.30;7.22;;;;;;;-1.24;81.62;102182.77;1693676;83;21048;-87
2022/03/08 03:56:52;;;;;;;9.30;6.05;;;;;;;-1.23;81.66;102182.03;1687445;83;21072;-86
2022/03/08 03:59:19;;;;;;;11.65;6.67;;;;;;;-1.24;81.65;102182.42;1689689;83;21148;-90
2022/03/08 04:01:46;;;;;;;10.48;6.25;;;;;;;-1.24;81.63;102177.61;1690250;83;21081;-86
2022/03/08 04:04:12;;;;;;;11.65;6.45;;;;;;;-1.25;81.64;102184.45;1724156;82;21787;-91
2022/03/08 04:06:39;;;;;;;12.37;6.70;;;;;;;-1.25;81.60;102178.00;1713561;83;21078;-85
2022/03/08 04:09:05;;;;;;;11.20;5.78;;;;;;;-1.25;81.59;102179.29;1711632;83;21308;-86
2022/03/08 04:11:32;;;;;;;9.88;6.50;;;;;;;-1.27;81.54;102177.34;1710996;81;21032;-89
2022/03/08 04:13:59;;;;;;;13.62;7.25;;;;;;;-1.26;81.56;102183.95;1719241;82;21094;-85
2022/03/08 04:16:25;;;;;;;11.28;6.72;;;;;;;-1.27;81.59;102181.21;1725954;82;22556;-91
2022/03/08 04:18:52;;;;;;;12.85;6.90;;;;;;;-1.27;81.53;102185.98;1721657;82;21031;-87
2022/03/08 04:21:18;;;;;;;12.63;6.97;;;;;;;-1.28;81.55;102185.84;1716189;83;21043;-90
2022/03/08 04:23:47;;;;;;;11.95;6.78;;;;;;;-1.26;81.59;102193.34;1710068;83;21588;-87
2022/03/08 04:26:13;;;;;;;13.83;7.35;;;;;;;-1.27;81.56;102188.96;1702476;83;21126;-87
2022/03/08 04:28:40;;;;;;;13.68;7.65;;;;;;;-1.27;81.59;102195.03;1703246;81;21170;-87
2022/03/08 04:31:07;;;;;;;12.78;7.33;;;;;;;-1.27;81.65;102196.32;1716269;82;21004;-92
2022/03/08 04:33:33;;;;;;;13.68;7.53;;;;;;;-1.26;81.72;102195.93;1717612;82;21102;-92
2022/03/08 04:36:00;;;;;;;15.48;8.70;;;;;;;-1.24;81.75;102195.34;1719118;82;21094;-88
2022/03/08 04:38:27;;;;;;;14.65;8.30;;;;;;;-1.25;81.73;102188.33;1711055;82;21100;-87
2022/03/08 04:40:54;;;;;;;13.05;7.78;;;;;;;-1.25;81.73;102189.63;1715190;81;21713;-87
2022/03/08 04:43:21;;;;;;;13.22;7.28;;;;;;;-1.23;81.74;102194.55;1710742;83;21048;-90
2022/03/08 04:45:47;;;;;;;14.40;7.35;;;;;;;-1.24;81.72;102191.81;1713281;83;21487;-86
2022/03/08 04:48:16;;;;;;;17.95;7.30;;;;;;;-1.24;81.71;102193.11;1709429;82;21878;-87
2022/03/08 04:50:42;;;;;;;11.85;7.03;;;;;;;-1.25;81.65;102196.08;1715595;82;21545;-91
2022/03/08 04:53:09;;;;;;;13.88;7.70;;;;;;;-1.24;81.71;102193.11;1715690;82;21739;-87
2022/03/08 04:55:36;;;;;;;13.22;7.05;;;;;;;-1.24;81.73;102189.23;1716981;81;21295;-93
2022/03/08 04:58:02;;;;;;;15.20;7.80;;;;;;;-1.23;81.67;102191.07;1721867;81;21012;-84
2022/03/08 05:00:29;;;;;;;11.88;7.35;;;;;;;-1.22;81.61;102188.99;1716009;83;21043;-92
2022/03/08 05:02:56;;;;;;;16.20;7.12;;;;;;;-1.21;81.71;102194.31;1713065;82;21094;-84
2022/03/08 05:05:22;;;;;;;13.18;7.22;;;;;;;-1.20;81.66;102188.39;1674349;85;21758;-93
2022/03/08 05:07:49;;;;;;;13.03;6.80;;;;;;;-1.20;81.64;102194.86;1706579;83;21057;-85
2022/03/08 05:10:16;;;;;;;9.85;6.55;;;;;;;-1.19;81.64;102190.59;1714394;83;21071;-88
2022/03/08 05:12:43;;;;;;;14.38;7.15;;;;;;;-1.18;81.64;102192.42;1708477;83;21051;-90
2022/03/08 05:15:10;;;;;;;13.32;6.85;;;;;;;-1.17;81.61;102190.35;1718271;82;21039;-84
2022/03/08 05:17:36;;;;;;;12.00;6.55;;;;;;;-1.19;81.57;102194.07;1712416;82;22603;-85
2022/03/08 05:20:05;;;;;;;11.60;6.87;;;;;;;-1.18;81.50;102195.91;1708632;82;21547;-84
2022/03/08 05:22:31;;;;;;;14.75;7.62;;;;;;;-1.17;81.45;102199.00;1709556;82;21531;-84
2022/03/08 05:24:58;;;;;;;13.60;7.55;;;;;;;-1.16;81.46;102199.94;1713131;82;21069;-91
2022/03/08 05:27:25;;;;;;;12.30;7.30;;;;;;;-1.14;81.53;102200.09;1744647;81;21067;-91
2022/03/08 05:29:51;;;;;;;14.07;7.58;;;;;;;-1.11;81.55;102205.13;1745219;80;21802;-94
2022/03/08 05:32:18;;;;;;;13.28;7.50;;;;;;;-1.09;81.56;102200.13;1705824;83;21101;-92
2022/03/08 05:34:44;;;;;;;12.50;7.45;;;;;;;-1.06;81.57;102209.08;1686702;84;21021;-83
2022/03/08 05:37:11;;;;;;;17.23;8.73;;;;;;;-1.03;81.57;102214.55;1671287;84;21416;-85
2022/03/08 05:39:37;;;;;;;18.82;9.40;;;;;;;-0.99;81.55;102212.77;1702048;84;21057;-94
2022/03/08 05:42:05;;;;;;;16.90;8.68;;;;;;;-0.94;81.52;102218.76;1700737;82;22563;-87
2022/03/08 05:44:31;;;;;;;13.13;7.83;;;;;;;-0.91;81.51;102230.30;1688292;84;21053;-88
2022/03/08 05:46:58;;;;;;;14.20;8.45;;;;;;;-0.86;81.51;102232.05;1704118;82;21105;-90
2022/03/08 05:49:25;;;;;;;12.93;8.25;;;;;;;-0.81;81.49;102233.00;1701479;82;21084;-89
2022/03/08 05:51:51;;;;;;;15.43;9.25;;;;;;;-0.75;81.50;102243.02;1688486;83;21591;-90
2022/03/08 05:54:18;;;;;;;15.28;9.08;;;;;;;-0.69;81.53;102234.53;1693692;83;21217;-90
2022/03/08 05:56:44;;;;;;;15.10;8.93;;;;;;;-0.62;81.61;102240.81;1701248;83;21134;-88
2022/03/08 05:59:11;;;;;;;15.80;8.73;;;;;;;-0.50;81.73;102233.28;1708307;81;21077;-91
2022/03/08 06:01:38;;;;;;;18.25;10.38;;;;;;;-0.40;81.61;102231.16;1726046;81;21326;-88
2022/03/08 06:04:04;;;;;;;20.20;10.08;;;;;;;-0.34;81.49;102238.58;1730901;81;21042;-87
2022/03/08 06:06:31;;;;;;;18.70;11.03;;;;;;;-0.29;81.34;102246.39;1718823;83;22549;-90
2022/03/08 06:08:58;;;;;;;19.65;10.38;;;;;;;-0.25;81.31;102244.21;1728879;81;21611;-92
2022/03/08 06:11:24;;;;;;;20.85;10.45;;;;;;;-0.20;81.18;102244.66;1725450;81;21042;-88
2022/03/08 06:13:51;;;;;;;19.15;11.08;;;;;;;-0.17;81.16;102241.03;1722742;81;21073;-93
2022/03/08 06:16:17;;;;;;;21.05;10.78;;;;;;;-0.12;81.05;102241.47;1724091;81;21088;-92
2022/03/08 06:18:44;;;;;;;19.37;10.78;;;;;;;-0.07;81.04;102251.48;1767815;79;22360;-86
2022/03/08 06:21:11;;;;;;;20.68;11.18;;;;;;;0.02;81.05;102245.31;1756938;80;22353;-89
2022/03/08 06:23:37;;;;;;;18.15;10.75;;;;;;;0.09;80.96;102247.30;1764016;80;21560;-88
2022/03/08 06:26:04;;;;;;;18.75;11.80;;;;;;;0.15;80.86;102241.77;1752516;80;21170;-87
2022/03/08 06:28:35;;;;;;;23.87;10.72;;;;;;;0.23;80.80;102245.98;1762508;80;21051;-88
2022/03/08 06:31:03;;;;;;;22.95;12.43;;;;;;;0.25;80.71;102234.09;1636317;86;21145;-90
2022/03/08 06:33:30;;;;;;;20.77;11.38;;;;;;;0.37;80.63;102237.76;1646482;87;21128;-86
2022/03/08 06:35:58;;;;;;;20.85;10.63;;;;;;;0.44;80.56;102241.83;1643809;87;21109;-88
2022/03/08 06:38:25;;;;;;;19.92;11.08;;;;;;;0.54;80.54;102239.66;1646815;87;21060;-91
2022/03/08 06:40:52;;;;;;;20.10;10.72;;;;;;;0.64;80.47;102243.61;1642298;86;21164;-89
2022/03/08 06:43:19;;;;;;;19.92;11.50;;;;;;;0.71;80.36;102237.27;1646981;87;21773;-90
2022/03/08 06:45:47;;;;;;;21.50;11.20;;;;;;;0.76;80.19;102231.72;1642535;85;21628;-90
2022/03/08 06:48:14;;;;;;;25.20;13.00;;;;;;;0.80;80.11;102226.82;1636990;87;21126;-91
2022/03/08 06:50:41;;;;;;;26.55;13.58;;;;;;;0.83;80.06;102216.34;1638486;87;21357;-91
2022/03/08 06:53:08;;;;;;;23.00;12.82;;;;;;;0.87;80.07;102226.19;1648140;85;21126;-90
2022/03/08 06:55:35;;;;;;;22.90;14.45;;;;;;;0.96;80.02;102229.98;1646851;87;21777;-91
2022/03/08 06:58:03;;;;;;;27.30;17.75;;;;;;;0.97;79.95;102223.61;1647613;85;21098;-90
2022/03/08 07:00:30;;;;;;;31.27;17.42;;;;;;;1.01;79.89;102223.49;1639576;86;21638;-90
2022/03/08 07:02:57;;;;;;;25.97;17.20;;;;;;;1.06;79.90;102224.81;1657826;85;21125;-90
2022/03/08 07:05:23;;;;;;;21.35;13.60;;;;;;;1.12;79.82;102227.03;1678806;84;21710;-89
2022/03/08 07:07:53;;;;;;;21.75;12.55;;;;;;;1.16;79.77;102227.81;1677376;82;22652;-91
2022/03/08 07:10:19;;;;;;;23.47;10.85;;;;;;;1.22;79.78;102233.91;1748296;81;21097;-91
2022/03/08 07:12:46;;;;;;;21.25;10.93;;;;;;;1.28;79.81;102227.98;1748213;81;21053;-91
2022/03/08 07:15:14;;;;;;;20.15;10.35;;;;;;;1.35;79.82;102225.11;1751529;80;21799;-89
2022/03/08 07:18:01;;;;;;;17.10;9.30;;;;;;;1.45;79.86;102221.64;1594375;88;21488;-86
2022/03/08 07:20:28;;;;;;;17.15;9.18;;;;;;;1.55;79.77;102228.12;1605376;87;21785;-86
2022/03/08 07:22:54;;;;;;;17.23;9.90;;;;;;;1.62;79.69;102220.08;1619650;86;21085;-86
2022/03/08 07:25:21;;;;;;;16.67;10.23;;;;;;;1.69;79.61;102223.72;1618451;86;21102;-86
2022/03/08 07:27:48;;;;;;;16.20;9.13;;;;;;;1.78;79.56;102227.86;1624029;86;21614;-85
2022/03/08 07:30:16;;;;;;;16.45;9.65;;;;;;;1.87;79.62;102236.42;1599053;88;21117;-86
2022/03/08 07:32:42;;;;;;;16.90;8.48;;;;;;;1.97;79.53;102241.98;1587977;88;21789;-86
2022/03/08 07:35:10;;;;;;;13.65;8.83;;;;;;;2.07;79.41;102244.19;1599691;87;21133;-86
2022/03/08 07:37:38;;;;;;;16.80;9.10;;;;;;;2.14;79.21;102245.62;1588848;88;21428;-84
2022/03/08 07:40:07;;;;;;;17.77;9.23;;;;;;;2.23;79.15;102242.85;1601748;88;21165;-86
2022/03/08 07:42:34;;;;;;;16.23;9.33;;;;;;;2.23;79.03;102225.97;1600615;87;21238;-85
2022/03/08 07:45:01;;;;;;;19.98;10.78;;;;;;;2.46;78.97;102236.94;1606483;88;21832;-85
2022/03/08 07:47:28;;;;;;;32.75;18.52;;;;;;;2.55;78.82;102228.98;1581218;88;21103;-85
2022/03/08 07:49:54;;;;;;;18.32;10.82;;;;;;;2.60;78.67;102225.08;1729011;82;22502;-85
2022/03/08 07:52:21;;;;;;;24.82;14.40;;;;;;;2.66;78.54;102216.47;1735290;81;21045;-85
2022/03/08 07:54:47;;;;;;;18.12;11.25;;;;;;;2.74;78.39;102216.70;1682784;82;21109;-86
2022/03/08 07:57:14;;;;;;;15.72;8.80;;;;;;;2.82;78.29;102217.31;1726688;82;21765;-83
2022/03/08 07:59:41;;;;;;;19.87;9.08;;;;;;;2.89;78.10;102215.32;1713229;82;21074;-83
2022/03/08 08:02:08;;;;;;;16.50;8.80;;;;;;;2.97;77.91;102219.83;1734221;81;21070;-85
2022/03/08 08:04:35;;;;;;;19.30;9.75;;;;;;;3.07;77.75;102229.26;1713720;82;21015;-85
2022/03/08 08:07:01;;;;;;;16.25;10.00;;;;;;;3.18;77.77;102232.72;1687013;83;21023;-86
2022/03/08 08:09:28;;;;;;;19.30;10.30;;;;;;;3.26;77.63;102233.80;1714063;83;22583;-85
2022/03/08 08:11:55;;;;;;;16.97;9.58;;;;;;;3.33;77.46;102231.31;1690836;83;21020;-85
2022/03/08 08:14:22;;;;;;;22.07;9.95;;;;;;;3.40;77.26;102237.51;1717788;82;21559;-85
2022/03/08 08:16:49;;;;;;;16.07;9.60;;;;;;;3.50;77.25;102236.52;1709875;81;21090;-85
2022/03/08 08:19:16;;;;;;;20.45;10.85;;;;;;;3.59;77.09;102230.72;1712955;82;21109;-84
2022/03/08 08:21:43;;;;;;;21.57;10.70;;;;;;;3.68;76.88;102233.14;1705556;82;23154;-85
2022/03/08 08:24:10;;;;;;;20.32;10.00;;;;;;;3.76;76.80;102229.41;1723296;83;21001;-86
2022/03/08 08:26:41;;;;;;;21.17;9.60;;;;;;;3.83;76.72;102230.39;1722815;82;21083;-86
2022/03/08 08:29:07;;;;;;;21.77;8.70;;;;;;;3.89;76.57;102232.55;1709577;83;20989;-86
2022/03/08 08:31:33;;;;;;;16.85;9.33;;;;;;;3.96;76.48;102227.39;1740568;81;22229;-86
2022/03/08 08:34:00;;;;;;;16.15;9.60;;;;;;;4.04;76.45;102223.28;1748400;81;21765;-86
2022/03/08 08:36:27;;;;;;;15.32;8.68;;;;;;;4.11;76.29;102223.36;1754862;80;21492;-87
2022/03/08 08:38:53;;;;;;;19.27;9.03;;;;;;;4.19;76.18;102220.02;1753601;81;21097;-86
2022/03/08 08:41:20;;;;;;;18.27;8.28;;;;;;;4.28;76.11;102219.40;1747874;82;21065;-87
2022/03/08 08:43:47;;;;;;;16.27;8.93;;;;;;;4.39;75.97;102214.95;1753273;81;21528;-87
2022/03/08 08:46:13;;;;;;;13.32;8.18;;;;;;;4.47;75.85;102208.62;1751268;81;21764;-87
2022/03/08 08:48:40;;;;;;;14.85;7.62;;;;;;;4.57;75.55;102209.78;1746142;80;21587;-87
2022/03/08 08:51:06;;;;;;;12.28;7.12;;;;;;;4.64;75.38;102203.33;1748408;80;21098;-86
2022/03/08 08:53:33;;;;;;;15.38;7.15;;;;;;;4.74;74.92;102203.17;1749491;81;21590;-86
2022/03/08 08:56:00;;;;;;;15.68;6.53;;;;;;;4.81;74.64;102195.41;1754410;80;21073;-85
2022/03/08 08:58:26;;;;;;;11.55;6.65;;;;;;;4.86;74.23;102190.09;1747914;82;21771;-86
2022/03/08 09:00:53;;;;;;;14.55;6.72;;;;;;;4.91;74.06;102186.52;1745126;80;21070;-87
2022/03/08 09:03:20;;;;;;;18.25;6.15;;;;;;;4.97;73.79;102186.95;1748014;81;21113;-87
2022/03/08 09:05:46;;;;;;;13.32;6.22;;;;;;;5.01;73.56;102181.14;1746886;81;21079;-86
2022/03/08 09:08:23;;;;;;;11.75;5.53;;;;;;;5.03;73.25;102179.17;1747367;80;21155;-86
2022/03/08 09:10:45;;;;;;;17.32;6.08;;;;;;;5.09;73.13;102177.39;1746633;81;21771;-86
2022/03/08 09:13:11;;;;;;;15.95;6.28;;;;;;;5.13;72.94;102182.02;1751534;80;21635;-84
2022/03/08 09:15:38;;;;;;;13.43;6.50;;;;;;;5.18;72.76;102166.66;1741185;81;21066;-86
2022/03/08 09:18:07;;;;;;;14.53;6.25;;;;;;;5.23;72.64;102157.45;1750678;80;21138;-86
2022/03/08 09:20:33;;;;;;;11.12;6.15;;;;;;;5.29;72.42;102153.05;1738876;81;21065;-86
2022/03/08 09:23:00;;;;;;;14.40;6.60;;;;;;;5.37;72.42;102147.98;1736187;81;21755;-86
2022/03/08 09:25:27;;;;;;;12.47;6.90;;;;;;;5.41;72.28;102133.02;1742554;82;21055;-86
2022/03/08 09:27:54;;;;;;;12.40;6.95;;;;;;;5.47;72.01;102131.23;1751564;81;21363;-86
2022/03/08 09:30:21;;;;;;;13.53;6.28;;;;;;;5.53;71.83;102122.08;1738646;81;21182;-87
2022/03/08 09:32:48;;;;;;;12.28;6.25;;;;;;;5.57;71.51;102124.50;1746682;81;21082;-87
2022/03/08 09:35:16;;;;;;;13.10;5.62;;;;;;;5.60;71.31;102116.47;1746556;82;21743;-86
2022/03/08 09:37:43;;;;;;;13.60;6.20;;;;;;;5.67;71.09;102119.48;1730149;82;21325;-87
2022/03/08 09:40:11;;;;;;;10.32;5.65;;;;;;;5.73;70.82;102126.03;1697144;82;21080;-87
2022/03/08 09:42:37;;;;;;;12.05;5.80;;;;;;;5.77;70.60;102117.59;1756091;81;21031;-87
2022/03/08 09:45:05;;;;;;;9.20;4.53;;;;;;;5.83;70.23;102121.91;1720704;82;21521;-87
2022/03/08 09:47:32;;;;;;;9.33;4.33;;;;;;;5.84;70.05;102116.30;1744934;81;21772;-86
2022/03/08 09:49:59;;;;;;;7.00;4.28;;;;;;;5.89;69.93;102116.59;1725297;82;21282;-86
2022/03/08 09:52:25;;;;;;;7.10;4.22;;;;;;;5.95;69.72;102117.95;1755162;81;21700;-88
2022/03/08 09:54:52;;;;;;;8.68;4.00;;;;;;;6.04;69.62;102115.02;1746085;81;21059;-86
2022/03/08 09:57:22;;;;;;;7.33;3.92;;;;;;;6.12;69.39;102122.97;1747968;81;21089;-86
2022/03/08 09:59:47;;;;;;;7.25;4.35;;;;;;;6.18;69.10;102112.91;1749730;81;22458;-86
2022/03/08 10:02:14;;;;;;;8.60;4.62;;;;;;;6.23;68.92;102111.87;1724694;81;21065;-86
2022/03/08 10:04:44;;;;;;;11.10;4.55;;;;;;;6.28;68.65;102113.50;1748533;82;21048;-86
2022/03/08 10:07:12;;;;;;;8.08;4.97;;;;;;;6.32;68.39;102108.55;1720211;82;21076;-87
2022/03/08 10:09:39;;;;;;;7.42;4.78;;;;;;;6.36;68.19;102111.89;1738909;81;21069;-86
2022/03/08 10:12:18;;;;;;;10.82;3.52;;;;;;;6.41;67.97;102113.06;1721726;81;21674;-85
2022/03/08 10:14:45;;;;;;;6.12;4.03;;;;;;;6.48;67.95;102116.09;1738228;80;21064;-86
2022/03/08 10:17:38;;;;;;;8.20;4.62;;;;;;;6.54;67.78;102123.01;1749368;81;21059;-86
2022/03/08 10:20:09;;;;;;;10.25;4.72;;;;;;;6.61;67.66;102122.19;1748548;81;21018;-85
2022/03/08 10:22:41;;;;;;;10.78;4.17;;;;;;;6.67;67.33;102121.66;1748832;82;21068;-86
2022/03/08 10:25:24;;;;;;;6.75;4.03;;;;;;;6.74;67.19;102126.89;1743416;82;21413;-86
2022/03/08 10:28:00;;;;;;;11.22;4.58;;;;;;;6.79;67.00;102121.13;1744954;80;21121;-85
2022/03/08 10:30:49;;;;;;;9.85;3.37;;;;;;;6.87;66.76;102119.37;1720134;82;21491;-86
2022/03/08 10:33:19;;;;;;;7.17;3.80;;;;;;;6.93;66.44;102121.08;1710898;82;21066;-86
2022/03/08 10:35:44;;;;;;;7.83;3.52;;;;;;;6.97;66.30;102118.73;1705477;83;21106;-86
2022/03/08 10:38:14;;;;;;;9.08;3.22;;;;;;;7.05;66.02;102118.30;1704682;83;21684;-85
2022/03/08 10:40:42;;;;;;;8.48;4.20;;;;;;;7.09;65.95;102120.30;1701194;83;21368;-87
2022/03/08 10:43:13;;;;;;;4.83;2.60;;;;;;;7.13;65.70;102118.36;1719071;83;21140;-82
2022/03/08 10:45:46;;;;;;;7.35;2.17;;;;;;;7.17;65.39;102126.89;1722326;82;21058;-79
2022/03/08 10:48:18;;;;;;;11.78;3.08;;;;;;;7.21;65.14;102126.30;1718638;82;21113;-78
2022/03/08 10:50:46;;;;;;;5.08;2.37;;;;;;;7.25;65.08;102123.45;1719346;82;21794;-78
2022/03/08 10:53:13;;;;;;;5.78;3.00;;;;;;;7.28;64.94;102112.77;1718605;82;21593;-80
2022/03/08 10:55:46;;;;;;;7.40;3.02;;;;;;;7.33;64.74;102114.33;1715214;83;21081;-77
2022/03/08 10:58:14;;;;;;;5.80;3.12;;;;;;;7.37;64.65;102115.01;1716619;82;21514;-77
2022/03/08 11:00:53;;;;;;;5.78;2.92;;;;;;;7.45;64.54;102113.77;1742147;82;21114;-79
2022/03/08 11:03:21;;;;;;;7.03;3.08;;;;;;;7.49;64.42;102101.73;1747563;80;21808;-78
2022/03/08 11:05:53;;;;;;;5.10;2.30;;;;;;;7.54;64.27;102113.39;1748184;81;21060;-78
2022/03/08 11:08:20;;;;;;;5.90;3.10;;;;;;;7.59;63.97;102105.41;1745416;80;21018;-78
2022/03/08 11:10:47;;;;;;;6.37;2.80;;;;;;;7.64;63.76;102106.97;1751767;81;21078;-79
2022/03/08 11:13:15;;;;;;;6.25;2.80;;;;;;;7.70;63.69;102096.87;1747525;80;21119;-78
2022/03/08 11:15:45;;;;;;;4.95;2.70;;;;;;;7.77;63.50;102103.86;1753413;81;21618;-78
2022/03/08 11:18:13;;;;;;;5.03;2.60;;;;;;;7.81;63.27;102096.16;1743285;81;21042;-78
2022/03/08 11:20:42;;;;;;;6.05;2.72;;;;;;;7.83;62.87;102095.83;1722935;81;21117;-78